METAR Data
IDs: Format: Raw Decoded Include TAF

Data at: 1019 UTC 26 Sep 2018

KEMV 260835Z AUTO 00000KT OVC002 22/22 A3006 RMK AO2
KEMV 260815Z AUTO 00000KT OVC002 22/22 A3007 RMK AO2
KEMV 260556Z AUTO 00000KT OVC002 23/23 A3010 RMK AO2
KEMV 260456Z AUTO 00000KT OVC002 23/23 A3011 RMK AO2
KEMV 260416Z AUTO 00000KT OVC002 23/23 A3012 RMK AO2
KEMV 260356Z AUTO 00000KT OVC004 22/22 A3012 RMK AO2
KEMV 260336Z AUTO 00000KT 22/22 A3013 RMK AO2
KEMV 260316Z AUTO 00000KT 22/22 A3013 RMK AO2
KEMV 260015Z AUTO 00000KT 23/22 A3014 RMK AO2
KEMV 252256Z AUTO 11005KT 25/23 A3015 RMK AO2
KEMV 252115Z AUTO 31003KT SCT060 BKN080 29/21 A3015 RMK AO2 LTG DSNT SE
KEMV 251715Z AUTO 00000KT BKN037 29/21 A3021 RMK AO2
KEMV 251515Z AUTO 14006KT BKN021 SCT030 27/22 A3024 RMK AO2
KEMV 251455Z AUTO 13003KT BKN017 OVC022 26/22 A3025 RMK AO2 LTG DSNT E
KEMV 251135Z AUTO 00000KT OVC003 22/22 A3024 RMK AO2
KEMV 251116Z AUTO 07003KT OVC003 22/22 A3024 RMK AO2
KEMV 251015Z AUTO 07004KT OVC003 22/22 A3022 RMK AO2
KEMV 250936Z AUTO 00000KT OVC003 22/22 A3022 RMK AO2
KEMV 250835Z AUTO 00000KT OVC003 22/22 A3022 RMK AO2
KEMV 250815Z AUTO 00000KT OVC003 22/22 A3023 RMK AO2
KEMV 250536Z AUTO 00000KT BKN003 OVC100 22/22 A3026 RMK AO2
KEMV 250355Z AUTO 00000KT OVC008 22/22 A3028 RMK AO2
KEMV 250315Z AUTO 00000KT BKN010 OVC100 22/22 A3027 RMK AO2
KEMV 250215Z AUTO 00000KT 22/22 A3027 RMK AO2 P0001
KEMV 250015Z AUTO 34004KT 22/22 A3025 RMK AO2
KEMV 242337Z AUTO 32004KT OVC017 23/22 A3024 RMK AO2
KEMV 242258Z AUTO 34004KT 23/22 A3023 RMK AO2